| time (UTC) | temp F | wind direction | speed MPH | gust MPH | rain 1hr in | rain 24hr in | rain mn in | humidity % | barometer mb |
| 20260831080119 | 64 | 226 | 1.0 | 4.0 | 0.00 | 1.06 | 0.01 | 85 | 1011.4 |
| 20260831075133 | 63 | 25 | 1.0 | 5.0 | 0.00 | 1.06 | 0.01 | 87 | 1011.2 |
| 20260831074120 | 63 | 236 | 1.0 | 7.0 | 0.00 | 1.06 | 0.01 | 87 | 1011.1 |
| 20260831073152 | 62 | 47 | 1.0 | 4.0 | 0.00 | 1.06 | 0.01 | 88 | 1010.9 |
| 20260831072117 | 62 | 23 | 1.0 | 5.0 | 0.00 | 1.06 | 0.01 | 89 | 1010.6 |
| 20260831071110 | 61 | 229 | 0.0 | 2.0 | 0.00 | 1.06 | 0.01 | 91 | 1010.5 |
| 20260831070116 | 61 | 217 | 0.0 | 3.0 | 0.00 | 1.06 | 0.01 | 91 | 1010.4 |
| 20260831065126 | 60 | 98 | 0.0 | 3.0 | 0.00 | 1.06 | 0.01 | 92 | 1010.2 |
| 20260831064112 | 60 | 256 | 0.0 | 4.0 | 0.00 | 1.06 | 0.01 | 92 | 1009.9 |
| 20260831063126 | 59 | 212 | 0.0 | 8.0 | 0.00 | 1.06 | 0.01 | 93 | 1009.8 |
| 20260831062119 | 59 | 221 | 1.0 | 7.0 | 0.00 | 1.06 | 0.01 | 93 | 1009.7 |
| 20260831061130 | 59 | 1 | 0.0 | 4.0 | 0.00 | 1.06 | 0.01 | 93 | 1009.5 |
| 20260831060116 | 58 | 219 | 0.0 | 2.0 | 0.00 | 1.06 | 0.01 | 93 | 1009.4 |
| 20260831055127 | 58 | 319 | 0.0 | 4.0 | 0.00 | 1.06 | 0.01 | 93 | 1009.2 |
| 20260831054118 | 58 | 269 | 0.0 | 3.0 | 0.00 | 1.06 | 0.01 | 94 | 1008.9 |
| 20260831053123 | 57 | 206 | 0.0 | 3.0 | 0.00 | 1.06 | 0.01 | 94 | 1008.9 |
| 20260831052121 | 57 | 217 | 0.0 | 1.0 | 0.00 | 1.06 | 0.01 | 94 | 1008.7 |
| 20260831051136 | 57 | 206 | 0.0 | 2.0 | 0.00 | 1.06 | 0.01 | 95 | 1008.5 |
| 20260831050119 | 57 | 91 | 0.0 | 3.0 | 0.00 | 1.06 | 0.01 | 95 | 1008.5 |
| 20260831045112 | 56 | 94 | 0.0 | 2.0 | 0.00 | 1.06 | 0.01 | 95 | 1008.2 |
| 20260831044123 | 56 | 241 | 0.0 | 2.0 | 0.00 | 1.06 | 0.01 | 95 | 1008.1 |
| 20260831043129 | 56 | 146 | 0.0 | 0.0 | 0.00 | 1.06 | 0.01 | 95 | 1008.1 |
| 20260831042121 | 56 | 229 | 0.0 | 0.0 | 0.00 | 1.06 | 0.01 | 94 | 1007.9 |
| 20260831041135 | 56 | 229 | 0.0 | 1.0 | 0.00 | 1.06 | 0.01 | 95 | 1007.8 |
| 20260831040142 | 56 | 221 | 0.0 | 0.0 | 0.00 | 1.06 | 0.01 | 95 | 1007.7 |
| 20260831035114 | 55 | 227 | 0.0 | 1.0 | 0.00 | 1.06 | 0.01 | 94 | 1007.6 |
| 20260831034117 | 55 | 200 | 0.0 | 0.0 | 0.00 | 1.06 | 0.01 | 93 | 1007.4 |
| 20260831033111 | 55 | 200 | 0.0 | 0.0 | 0.00 | 1.06 | 0.01 | 93 | 1007.4 |
| 20260831032124 | 55 | 200 | 0.0 | 0.0 | 0.00 | 1.06 | 0.01 | 93 | 1007.3 |
| 20260831031110 | 56 | 200 | 0.0 | 0.0 | 0.00 | 1.06 | 0.01 | 93 | 1007.2 |
| 20260831030123 | 56 | 200 | 0.0 | 0.0 | 0.00 | 1.06 | 0.01 | 93 | 1007.1 |
| 20260831025137 | 56 | 201 | 0.0 | 0.0 | 0.00 | 1.06 | 0.01 | 93 | 1007.1 |
| 20260831024120 | 56 | 201 | 0.0 | 1.0 | 0.00 | 1.06 | 0.01 | 93 | 1007.0 |
| 20260831023134 | 57 | 229 | 0.0 | 0.0 | 0.00 | 1.06 | 0.01 | 92 | 1006.8 |
| 20260831022125 | 57 | 229 | 0.0 | 3.0 | 0.00 | 1.06 | 0.01 | 93 | 1006.6 |
| 20260831021111 | 57 | 222 | 0.0 | 1.0 | 0.00 | 1.06 | 0.01 | 93 | 1006.5 |
| 20260831020121 | 57 | 127 | 0.0 | 1.0 | 0.00 | 1.06 | 0.01 | 93 | 1006.5 |
| 20260831015113 | 57 | 171 | 0.0 | 1.0 | 0.00 | 1.06 | 0.01 | 93 | 1006.5 |
| 20260831014117 | 57 | 207 | 0.0 | 1.0 | 0.04 | 1.06 | 0.01 | 93 | 1006.4 |
| 20260831013129 | 57 | 224 | 0.0 | 0.0 | 0.04 | 1.06 | 0.01 | 93 | 1006.3 |
| 20260831012115 | 57 | 233 | 0.0 | 0.0 | 0.04 | 1.06 | 0.01 | 93 | 1006.2 |
| 20260831011129 | 57 | 217 | 0.0 | 0.0 | 0.04 | 1.06 | 0.01 | 93 | 1006.2 |
| 20260831010141 | 57 | 235 | 0.0 | 0.0 | 0.04 | 1.06 | 0.01 | 93 | 1006.1 |
| 20260831005132 | 57 | 236 | 0.0 | 2.0 | 0.04 | 1.06 | 0.01 | 93 | 1006.1 |
| 20260831004119 | 57 | 220 | 0.0 | 1.0 | 0.00 | 1.02 | 0.00 | 93 | 1005.9 |
| 20260831003151 | 57 | 236 | 0.0 | 1.0 | 0.00 | 1.02 | 0.00 | 93 | 1005.8 |
| 20260831002124 | 57 | 204 | 0.0 | 0.0 | 0.00 | 1.02 | 0.00 | 93 | 1005.7 |
| 20260831001130 | 57 | 187 | 0.0 | 0.0 | 0.00 | 1.02 | 0.00 | 93 | 1005.6 |
| 20260831000122 | 57 | 176 | 0.0 | 2.0 | 0.00 | 1.02 | 0.00 | 93 | 1005.4 |
| 20260830235156 | 57 | 197 | 0.0 | 2.0 | 0.00 | 1.02 | 0.00 | 93 | 1005.3 |
| 20260830234121 | 57 | 219 | 0.0 | 1.0 | 0.00 | 1.02 | 0.00 | 93 | 1005.2 |
| 20260830233113 | 57 | 224 | 0.0 | 1.0 | 0.04 | 1.02 | 0.00 | 93 | 1005.2 |
| 20260830232119 | 58 | 222 | 0.0 | 1.0 | 0.04 | 1.02 | 0.00 | 93 | 1005.1 |
| 20260830231129 | 58 | 238 | 0.0 | 2.0 | 0.04 | 1.02 | 0.20 | 92 | 1005.1 |
| 20260830230114 | 58 | 317 | 0.0 | 1.0 | 0.04 | 1.02 | 0.20 | 92 | 1005.0 |
| 20260830225126 | 58 | 214 | 0.0 | 2.0 | 0.04 | 1.02 | 0.20 | 92 | 1004.9 |
| 20260830224119 | 58 | 206 | 1.0 | 3.0 | 0.04 | 1.02 | 0.20 | 93 | 1004.9 |
| 20260830223126 | 58 | 44 | 0.0 | 4.0 | 0.00 | 0.98 | 0.20 | 93 | 1005.0 |
| 20260830222120 | 58 | 355 | 0.0 | 1.0 | 0.00 | 0.98 | 0.20 | 93 | 1004.7 |
| 20260830221134 | 59 | 167 | 0.0 | 2.0 | 0.00 | 0.98 | 0.20 | 93 | 1004.7 |
| 20260830220138 | 59 | 217 | 0.0 | 1.0 | 0.00 | 0.98 | 0.20 | 93 | 1004.6 |
| 20260830215113 | 59 | 236 | 0.0 | 1.0 | 0.12 | 0.98 | 0.20 | 93 | 1004.5 |
| 20260830214119 | 59 | 197 | 0.0 | 0.0 | 0.24 | 0.98 | 0.20 | 93 | 1004.5 |
| 20260830213131 | 59 | 178 | 0.0 | 2.0 | 0.24 | 0.98 | 0.20 | 93 | 1004.3 |
| 20260830212122 | 60 | 155 | 0.0 | 1.0 | 0.24 | 0.98 | 0.20 | 93 | 1004.3 |
| 20260830211135 | 60 | 233 | 0.0 | 3.0 | 0.24 | 0.98 | 0.20 | 92 | 1004.2 |
| 20260830210121 | 60 | 208 | 1.0 | 4.0 | 0.24 | 0.98 | 0.20 | 92 | 1004.2 |
| 20260830205115 | 61 | 161 | 0.0 | 2.0 | 0.43 | 0.87 | 0.17 | 92 | 1004.3 |
| 20260830204148 | 61 | 22 | 0.0 | 3.0 | 0.51 | 0.75 | 0.15 | 92 | 1004.4 |
| 20260830203113 | 61 | 143 | 0.0 | 4.0 | 0.51 | 0.75 | 0.15 | 92 | 1004.0 |
| 20260830202125 | 61 | 224 | 0.0 | 0.0 | 0.51 | 0.75 | 0.15 | 91 | 1004.2 |
| 20260830201118 | 61 | 226 | 0.0 | 1.0 | 0.51 | 0.75 | 0.15 | 90 | 1004.3 |
| 20260830200132 | 62 | 191 | 0.0 | 2.0 | 0.51 | 0.75 | 0.15 | 89 | 1004.3 |
| 20260830195116 | 62 | 229 | 0.0 | 2.0 | 0.20 | 0.43 | 0.09 | 87 | 1004.5 |
| 20260830194130 | 63 | 231 | 1.0 | 5.0 | 0.00 | 0.24 | 0.05 | 86 | 1004.4 |
| 20260830193120 | 62 | 221 | 0.0 | 3.0 | 0.00 | 0.24 | 0.05 | 86 | 1004.3 |
| 20260830192133 | 62 | 265 | 0.0 | 5.0 | 0.00 | 0.24 | 0.05 | 86 | 1004.5 |
| 20260830191117 | 63 | 215 | 0.0 | 3.0 | 0.00 | 0.24 | 0.05 | 86 | 1004.4 |
| 20260830190130 | 63 | 221 | 0.0 | 2.0 | 0.00 | 0.24 | 0.05 | 86 | 1004.4 |
| 20260830185142 | 63 | 193 | 0.0 | 2.0 | 0.00 | 0.24 | 0.05 | 86 | 1004.6 |
| 20260830184156 | 63 | 138 | 0.0 | 3.0 | 0.00 | 0.24 | 0.05 | 86 | 1004.6 |
| 20260830183120 | 63 | 19 | 0.0 | 3.0 | 0.00 | 0.24 | 0.05 | 86 | 1004.7 |
| 20260830182112 | 63 | 219 | 0.0 | 3.0 | 0.00 | 0.24 | 0.05 | 86 | 1004.7 |
| 20260830181125 | 63 | 239 | 0.0 | 2.0 | 0.00 | 0.24 | 0.05 | 85 | 1004.6 |
| 20260830180131 | 63 | 252 | 1.0 | 4.0 | 0.00 | 0.24 | 0.05 | 84 | 1004.5 |
| 20260830175124 | 64 | 229 | 1.0 | 6.0 | 0.04 | 0.24 | 0.05 | 83 | 1004.6 |
| 20260830174136 | 64 | 148 | 1.0 | 4.0 | 0.20 | 0.24 | 0.05 | 83 | 1004.8 |
| 20260830173121 | 65 | 264 | 1.0 | 5.0 | 0.20 | 0.24 | 0.05 | 83 | 1004.8 |
| 20260830172133 | 65 | 210 | 0.0 | 8.0 | 0.20 | 0.24 | 0.05 | 84 | 1004.9 |
| 20260830171119 | 65 | 218 | 2.0 | 7.0 | 0.20 | 0.24 | 0.05 | 87 | 1004.8 |
| 20260830170133 | 65 | 207 | 0.0 | 5.0 | 0.20 | 0.24 | 0.05 | 86 | 1004.8 |
| 20260830165146 | 66 | 117 | 1.0 | 5.0 | 0.12 | 0.16 | 0.03 | 82 | 1004.8 |
| 20260830164132 | 67 | 224 | 1.0 | 6.0 | 0.00 | 0.04 | 0.01 | 79 | 1004.7 |
| 20260830163125 | 66 | 272 | 0.0 | 5.0 | 0.00 | 0.04 | 0.01 | 84 | 1004.8 |
| 20260830162157 | 66 | 236 | 1.0 | 7.0 | 0.00 | 0.04 | 0.01 | 84 | 1004.9 |
| 20260830161122 | 66 | 204 | 0.0 | 4.0 | 0.00 | 0.04 | 0.01 | 85 | 1005.1 |
| 20260830160114 | 66 | 216 | 0.0 | 6.0 | 0.00 | 0.04 | 0.01 | 83 | 1005.1 |
| 20260830155121 | 66 | 224 | 1.0 | 6.0 | 0.00 | 0.04 | 0.01 | 82 | 1005.2 |
| 20260830154114 | 67 | 220 | 1.0 | 6.0 | 0.00 | 0.04 | 0.01 | 79 | 1005.4 |
| 20260830153121 | 68 | 210 | 0.0 | 2.0 | 0.00 | 0.04 | 0.01 | 78 | 1005.4 |
| 20260830152136 | 68 | 154 | 0.0 | 2.0 | 0.00 | 0.04 | 0.01 | 79 | 1005.5 |
| 20260830151147 | 67 | 95 | 1.0 | 8.0 | 0.00 | 0.08 | 0.01 | 80 | 1005.6 |
| 20260830150119 | 67 | 248 | 0.0 | 6.0 | 0.00 | 0.08 | 0.01 | 82 | 1006.0 |
| 20260830145152 | 66 | 46 | 0.0 | 4.0 | 0.00 | 0.08 | 0.01 | 83 | 1006.0 |
| 20260830144117 | 66 | 229 | 1.0 | 4.0 | 0.00 | 0.08 | 0.01 | 82 | 1005.9 |
| 20260830143130 | 67 | 110 | 0.0 | 5.0 | 0.00 | 0.08 | 0.01 | 81 | 1006.2 |
| 20260830142117 | 67 | 199 | 0.0 | 2.0 | 0.00 | 0.08 | 0.01 | 79 | 1006.4 |
| 20260830141148 | 67 | 214 | 0.0 | 4.0 | 0.00 | 0.08 | 0.01 | 78 | 1006.6 |
| 20260830140121 | 67 | 226 | 1.0 | 4.0 | 0.00 | 0.08 | 0.01 | 77 | 1006.7 |
| 20260830135130 | 68 | 197 | 1.0 | 5.0 | 0.00 | 0.08 | 0.01 | 75 | 1006.8 |
| 20260830134117 | 68 | 235 | 1.0 | 6.0 | 0.00 | 0.08 | 0.01 | 72 | 1007.0 |
| 20260830133129 | 69 | 230 | 1.0 | 6.0 | 0.00 | 0.08 | 0.01 | 71 | 1006.9 |
| 20260830132116 | 69 | 352 | 1.0 | 8.0 | 0.00 | 0.08 | 0.01 | 72 | 1007.0 |
| 20260830131130 | 70 | 225 | 3.0 | 7.0 | 0.00 | 0.08 | 0.01 | 69 | 1007.0 |
| 20260830130254 | 70 | 41 | 2.0 | 7.0 | 0.00 | 0.08 | 0.01 | 68 | 1006.8 |
| 20260830125124 | 71 | 180 | 0.0 | 6.0 | 0.00 | 0.08 | 0.01 | 68 | 1006.7 |
| 20260830124131 | 72 | 220 | 2.0 | 6.0 | 0.00 | 0.08 | 0.01 | 66 | 1006.8 |
| 20260830123124 | 72 | 231 | 1.0 | 11.0 | 0.00 | 0.08 | 0.01 | 68 | 1006.5 |
| 20260830122135 | 71 | 280 | 2.0 | 5.0 | 0.00 | 0.08 | 0.01 | 70 | 1006.7 |
| 20260830121121 | 69 | 219 | 0.0 | 5.0 | 0.00 | 0.08 | 0.01 | 73 | 1006.8 |
| 20260830120135 | 69 | 359 | 1.0 | 6.0 | 0.00 | 0.08 | 0.01 | 72 | 1007.0 |
| 20260830115127 | 70 | 235 | 1.0 | 5.0 | 0.00 | 0.08 | 0.01 | 71 | 1007.1 |
| 20260830114159 | 71 | 112 | 1.0 | 5.0 | 0.00 | 0.08 | 0.01 | 68 | 1007.3 |
| 20260830113124 | 71 | 192 | 0.0 | 8.0 | 0.00 | 0.08 | 0.01 | 70 | 1007.3 |
| 20260830112116 | 72 | 200 | 2.0 | 5.0 | 0.00 | 0.08 | 0.01 | 67 | 1007.3 |
| 20260830111121 | 72 | 184 | 2.0 | 9.0 | 0.00 | 0.47 | 0.01 | 68 | 1007.5 |
| 20260830110114 | 72 | 219 | 0.0 | 3.0 | 0.04 | 0.47 | 0.01 | 73 | 1007.4 |
| 20260830105147 | 71 | 133 | 0.0 | 4.0 | 0.04 | 0.47 | 0.01 | 72 | 1007.6 |
| 20260830104112 | 71 | 232 | 2.0 | 7.0 | 0.04 | 0.47 | 0.01 | 73 | 1007.6 |
| 20260830103126 | 70 | 171 | 0.0 | 4.0 | 0.04 | 0.47 | 0.01 | 77 | 1007.8 |
| 20260830102112 | 69 | 219 | 0.0 | 5.0 | 0.04 | 0.47 | 0.01 | 81 | 1007.9 |
| 20260830101126 | 69 | 223 | 1.0 | 2.0 | 0.00 | 0.47 | 0.00 | 78 | 1008.0 |
| 20260830100112 | 68 | 227 | 1.0 | 3.0 | 0.00 | 0.47 | 0.00 | 77 | 1008.2 |
| 20260830095152 | 69 | 224 | 1.0 | 3.0 | 0.00 | 0.47 | 0.00 | 77 | 1008.2 |
| 20260830094117 | 69 | 259 | 0.0 | 4.0 | 0.00 | 0.47 | 0.00 | 79 | 1008.3 |
| 20260830093129 | 68 | 210 | 1.0 | 3.0 | 0.00 | 0.47 | 0.00 | 80 | 1008.3 |
| 20260830092115 | 67 | 205 | 0.0 | 4.0 | 0.00 | 0.47 | 0.00 | 82 | 1008.4 |
| 20260830091127 | 67 | 24 | 0.0 | 4.0 | 0.00 | 1.97 | 0.00 | 83 | 1008.4 |
| 20260830085111 | 67 | 217 | 1.0 | 5.0 | 0.00 | 1.97 | 0.00 | 83 | 1008.6 |
| 20260830084124 | 65 | 205 | 0.0 | 3.0 | 0.00 | 1.97 | 0.00 | 86 | 1008.6 |
| 20260830083130 | 64 | 219 | 0.0 | 3.0 | 0.00 | 1.97 | 0.00 | 88 | 1008.6 |
| 20260830082123 | 64 | 172 | 1.0 | 3.0 | 0.00 | 1.97 | 0.00 | 89 | 1008.6 |
| 20260830081137 | 63 | 203 | 0.0 | 3.0 | 0.00 | 1.97 | 0.00 | 91 | 1008.6 |